Zell Am See, Austria
Current Conditions -  °F | °C
As of 2:50 PM on Monday 20 Oct 2014 (Local Time) from LOWS Reporting Station
Broken Clouds Broken Clouds  
Wind Chill: 73°   Ceiling: 30000
Heat Index: 73°   Visibility: 6mi
Dew Point: 54°   Wind: 3mph
Humidity: 50%   Direction: NA
Pressure: 30.06"   Gusts: NA
Location:  47.32°N, 12.78°E
Report Text: LOWS 201250Z VRB03KT 9999 FEW060 SCT120 BKN300 23/12 Q1018 NOSIG
Loading
Personal Weather Stations






























Interactive Weather Map
Tropical Storm Tracking
New forecast layout! Learn more

10-Day Weather Forecast

Advertisements
Track Severe Weather on mobile